Time;durP1;ratioP1;P1;durP2;ratioP2;P2;SDS_P1;SDS_P2;PMS_P1;PMS_P2;Temp;Humidity;BMP_temperature;BMP_pressure;BME280_temperature;BME280_humidity;BME280_pressure;Samples;Min_cycle;Max_cycle;Signal;HPM_P1;HPM_P2
2023/02/02 00:00:47;;;;;;;;;;;;;;;3.28;98.66;97160.41;5072953;28;19951;-74
2023/02/02 00:03:13;;;;;;;;;;;;;;;3.28;98.89;97156.03;5072922;28;20414;-74
2023/02/02 00:05:44;;;;;;;;;;;;;;;3.29;98.42;97169.81;5072829;28;19957;-74
2023/02/02 00:08:09;;;;;;;;;;;;;;;3.31;98.82;97167.88;5073015;28;19954;-73
2023/02/02 00:10:35;;;;;;;;;;;;;;;3.30;98.59;97156.69;5072856;28;19950;-73
2023/02/02 00:13:01;;;;;;;;;;;;;;;3.31;99.16;97144.53;5072705;28;19977;-73
2023/02/02 00:15:27;;;;;;;;;;;;;;;3.31;98.79;97145.34;5072551;28;19968;-73
2023/02/02 00:17:53;;;;;;;;;;;;;;;3.33;98.62;97140.81;5072472;28;19954;-73
2023/02/02 00:20:21;;;;;;;;;;;;;;;3.35;98.80;97145.84;5072909;28;19960;-73
2023/02/02 00:22:46;;;;;;;;;;;;;;;3.35;98.61;97144.06;5072585;28;19978;-74
2023/02/02 00:25:12;;;;;;;;;;;;;;;3.37;98.54;97149.09;5073257;28;20409;-74
2023/02/02 00:27:38;;;;;;;;;;;;;;;3.36;98.74;97147.47;5076321;28;20400;-74
2023/02/02 00:30:04;;;;;;;;;;;;;;;3.36;98.40;97148.31;5075080;28;19983;-74
2023/02/02 00:32:30;;;;;;;;;;;;;;;3.35;99.14;97144.06;5076070;28;19967;-75
2023/02/02 00:34:56;;;;;;;;;;;;;;;3.33;98.62;97151.19;5075055;28;19977;-74
2023/02/02 00:37:22;;;;;;;;;;;;;;;3.35;98.44;97151.03;5075857;28;19956;-74
2023/02/02 00:39:48;;;;;;;;;;;;;;;3.33;98.78;97148.59;5075880;28;20029;-74
2023/02/02 00:42:14;;;;;;;;;;;;;;;3.32;98.75;97146.16;5076207;28;20237;-74
2023/02/02 00:47:24;;;;;;;;;;;;;;;3.29;99.03;97156.84;5075764;28;20355;-74
2023/02/02 00:49:50;;;;;;;;;;;;;;;3.28;98.50;97145.66;5075861;28;20002;-74
2023/02/02 00:52:16;;;;;;;;;;;;;;;3.28;98.84;97150.84;5075515;28;20423;-74
2023/02/02 00:54:41;;;;;;;;;;;;;;;3.29;98.85;97141.28;5075812;28;19954;-74
2023/02/02 00:57:11;;;;;;;;;;;;;;;3.30;98.56;97140.31;5075784;28;20393;-74
2023/02/02 00:59:37;;;;;;;;;;;;;;;3.31;98.51;97154.91;5075507;28;19949;-75
2023/02/02 01:02:03;;;;;;;;;;;;;;;3.31;98.76;97141.94;5074217;28;19996;-74
2023/02/02 01:04:29;;;;;;;;;;;;;;;3.30;98.55;97150.69;5075544;28;19979;-74
2023/02/02 01:06:55;;;;;;;;;;;;;;;3.30;98.52;97142.91;5076061;28;20353;-74
2023/02/02 01:09:20;;;;;;;;;;;;;;;3.30;98.67;97150.69;5075744;28;19964;-74
2023/02/02 01:11:46;;;;;;;;;;;;;;;3.31;98.88;97144.53;5075533;28;19949;-74
2023/02/02 01:14:12;;;;;;;;;;;;;;;3.30;98.58;97142.91;5075366;28;20408;-73
2023/02/02 01:16:38;;;;;;;;;;;;;;;3.30;98.57;97142.91;5073995;28;19952;-74
2023/02/02 01:19:04;;;;;;;;;;;;;;;3.33;98.88;97155.56;5075186;28;19951;-73
2023/02/02 01:21:30;;;;;;;;;;;;;;;3.33;98.71;97158.16;5075198;28;19958;-74
2023/02/02 01:23:55;;;;;;;;;;;;;;;3.34;99.21;97167.56;5075315;28;19945;-74
2023/02/02 01:26:21;;;;;;;;;;;;;;;3.34;99.46;97168.38;5075384;28;19958;-74
2023/02/02 01:28:47;;;;;;;;;;;;;;;3.35;99.89;97169.19;5074662;28;19954;-74
2023/02/02 01:31:15;;;;;;;;;;;;;;;3.36;99.98;97157.84;5075875;28;20300;-73
2023/02/02 01:33:42;;;;;;;;;;;;;;;3.36;100.00;97171.63;5075024;28;19961;-74
2023/02/02 01:36:12;;;;;;;;;;;;;;;3.37;100.00;97168.06;5075279;28;19947;-75
2023/02/02 01:38:39;;;;;;;;;;;;;;;3.38;100.00;97174.88;5074558;28;19951;-74
2023/02/02 01:41:06;;;;;;;;;;;;;;;3.38;100.00;97174.06;5074645;28;19946;-74
2023/02/02 01:43:43;;;;;;;;;;;;;;;3.38;100.00;97171.47;5074917;28;19970;-74
2023/02/02 01:46:13;;;;;;;;;;;;;;;3.39;100.00;97160.13;5075047;28;19959;-74
2023/02/02 01:48:41;;;;;;;;;;;;;;;3.38;100.00;97159.34;5075341;28;19946;-74
2023/02/02 01:51:10;;;;;;;;;;;;;;;3.40;100.00;97161.75;5074624;28;19956;-74
2023/02/02 01:53:36;;;;;;;;;;;;;;;3.42;100.00;97163.25;5074814;28;19958;-74
2023/02/02 01:56:04;;;;;;;;;;;;;;;3.43;100.00;97154.47;5074462;28;20343;-74
2023/02/02 01:58:33;;;;;;;;;;;;;;;3.45;100.00;97152.56;5074644;28;19958;-75
2023/02/02 02:00:59;;;;;;;;;;;;;;;3.47;100.00;97161.97;5074905;28;19951;-75
2023/02/02 02:03:27;;;;;;;;;;;;;;;3.48;100.00;97158.38;5074697;28;19984;-74
2023/02/02 02:05:55;;;;;;;;;;;;;;;3.50;100.00;97167.63;5074375;28;19989;-74
2023/02/02 02:08:23;;;;;;;;;;;;;;;3.51;100.00;97161.50;5074485;28;19955;-73
2023/02/02 02:10:49;;;;;;;;;;;;;;;3.51;100.00;97160.66;5074551;28;19949;-74
2023/02/02 02:13:15;;;;;;;;;;;;;;;3.52;100.00;97160.50;5074386;28;19995;-74
2023/02/02 02:18:48;;;;;;;;;;;;;;;3.50;100.00;97159.84;5059969;28;19942;-74
2023/02/02 02:27:18;;;;;;;;;;;;;;;3.48;100.00;97163.56;5074095;28;19941;-74
2023/02/02 02:29:47;;;;;;;;;;;;;;;3.45;100.00;97165.50;5074134;28;19952;-74
2023/02/02 02:32:28;;;;;;;;;;;;;;;3.47;100.00;97167.16;5074523;28;19965;-73
2023/02/02 02:35:03;;;;;;;;;;;;;;;3.47;100.00;97165.38;5065563;28;19947;-74
2023/02/02 02:37:29;;;;;;;;;;;;;;;3.47;100.00;97165.38;5074097;28;20392;-74
2023/02/02 02:39:58;;;;;;;;;;;;;;;3.49;100.00;97160.03;5073575;28;19959;-74
2023/02/02 02:42:26;;;;;;;;;;;;;;;3.47;100.00;97155.00;5073850;28;20335;-74
2023/02/02 02:44:54;;;;;;;;;;;;;;;3.47;100.00;97160.19;5073787;28;19954;-74
2023/02/02 02:47:19;;;;;;;;;;;;;;;3.46;100.00;97150.75;5073832;28;19968;-74
2023/02/02 02:49:48;;;;;;;;;;;;;;;3.46;100.00;97155.94;5072911;28;20578;-74
2023/02/02 02:52:14;;;;;;;;;;;;;;;3.45;100.00;97159.53;5073374;28;19966;-75
2023/02/02 02:54:46;;;;;;;;;;;;;;;3.45;100.00;97160.31;5073702;28;19955;-75
2023/02/02 02:57:11;;;;;;;;;;;;;;;3.45;100.00;97159.53;5073561;28;19948;-75
2023/02/02 02:59:37;;;;;;;;;;;;;;;3.45;100.00;97155.13;5073878;28;20331;-75
2023/02/02 03:02:03;;;;;;;;;;;;;;;3.44;100.00;97170.84;5073480;28;19954;-74
2023/02/02 03:04:50;;;;;;;;;;;;;;;3.45;100.00;97160.31;5072390;28;19953;-75
2023/02/02 03:07:22;;;;;;;;;;;;;;;3.46;100.00;97174.09;5073504;28;19981;-73
2023/02/02 03:09:50;;;;;;;;;;;;;;;3.45;100.00;97167.31;5072292;28;20322;-74
2023/02/02 03:12:16;;;;;;;;;;;;;;;3.44;100.00;97176.88;5073506;28;19972;-74
2023/02/02 03:14:42;;;;;;;;;;;;;;;3.42;100.00;97173.63;5073395;28;19967;-74
2023/02/02 03:17:08;;;;;;;;;;;;;;;3.42;100.00;97171.03;5073340;28;19960;-74
2023/02/02 03:19:34;;;;;;;;;;;;;;;3.41;100.00;97168.56;5073571;28;20000;-74
2023/02/02 03:22:00;;;;;;;;;;;;;;;3.40;100.00;97166.94;5073438;28;19982;-74
2023/02/02 03:24:26;;;;;;;;;;;;;;;3.42;100.00;97167.59;5073273;28;19959;-75
2023/02/02 03:26:52;;;;;;;;;;;;;;;3.41;100.00;97165.97;5073441;28;19989;-74
2023/02/02 03:29:18;;;;;;;;;;;;;;;3.39;100.00;97170.50;5073390;28;19961;-74
2023/02/02 03:31:45;;;;;;;;;;;;;;;3.38;100.00;97163.69;5073192;28;20005;-74
2023/02/02 03:34:10;;;;;;;;;;;;;;;3.37;100.00;97162.88;5073120;28;19965;-74
2023/02/02 03:36:36;;;;;;;;;;;;;;;3.36;100.00;97171.63;5073280;28;19957;-74
2023/02/02 03:39:02;;;;;;;;;;;;;;;3.34;100.00;97176.16;5073457;28;19994;-74
2023/02/02 03:41:28;;;;;;;;;;;;;;;3.36;100.00;97176.81;5073156;28;19963;-74
2023/02/02 03:43:54;;;;;;;;;;;;;;;3.37;100.00;97177.63;5073097;28;19983;-74
2023/02/02 03:46:20;;;;;;;;;;;;;;;3.37;100.00;97181.03;5073135;28;19998;-74
2023/02/02 03:48:45;;;;;;;;;;;;;;;3.39;100.00;97175.69;5073066;28;20472;-74
2023/02/02 03:51:12;;;;;;;;;;;;;;;3.40;100.00;97182.50;5073088;28;20364;-74
2023/02/02 03:53:39;;;;;;;;;;;;;;;3.39;100.00;97184.28;5073518;28;19976;-74
2023/02/02 03:56:05;;;;;;;;;;;;;;;3.40;100.00;97175.56;5073010;28;19951;-74
2023/02/02 03:58:31;;;;;;;;;;;;;;;3.38;100.00;97174.88;5072898;28;19961;-74
2023/02/02 04:01:04;;;;;;;;;;;;;;;3.37;100.00;97170.66;5075031;28;19956;-74
2023/02/02 04:03:30;;;;;;;;;;;;;;;3.38;100.00;97179.25;5076544;28;19959;-74
2023/02/02 04:05:56;;;;;;;;;;;;;;;3.37;100.00;97175.03;5077003;28;19964;-74
2023/02/02 04:08:22;;;;;;;;;;;;;;;3.36;100.00;97168.22;5076816;28;19958;-75
2023/02/02 04:10:47;;;;;;;;;;;;;;;3.37;100.00;97190.59;5076714;28;20391;-74
2023/02/02 04:13:13;;;;;;;;;;;;;;;3.36;100.00;97184.59;5076466;28;20059;-75
2023/02/02 04:15:39;;;;;;;;;;;;;;;3.35;100.00;97182.16;5061797;28;19982;-74
2023/02/02 04:18:05;;;;;;;;;;;;;;;3.35;100.00;97184.75;5077065;28;19958;-74
2023/02/02 04:20:31;;;;;;;;;;;;;;;3.34;100.00;97183.94;5076727;28;19961;-75
2023/02/02 04:22:57;;;;;;;;;;;;;;;3.34;100.00;97194.31;5076383;28;19957;-74
2023/02/02 04:25:23;;;;;;;;;;;;;;;3.35;100.00;97195.13;5076428;28;20045;-74
2023/02/02 04:27:49;;;;;;;;;;;;;;;3.35;100.00;97193.31;5076399;28;19949;-74
2023/02/02 04:30:15;;;;;;;;;;;;;;;3.36;100.00;97173.41;5076370;28;20006;-75
2023/02/02 04:32:40;;;;;;;;;;;;;;;3.38;100.00;97174.06;5076278;28;19968;-74
2023/02/02 04:35:07;;;;;;;;;;;;;;;3.37;100.00;97182.81;5076682;28;20012;-74
2023/02/02 04:37:33;;;;;;;;;;;;;;;3.37;100.00;97182.81;5075083;28;19958;-74
2023/02/02 04:39:59;;;;;;;;;;;;;;;3.36;100.00;97179.41;5075939;28;20416;-74
2023/02/02 04:42:25;;;;;;;;;;;;;;;3.38;100.00;97185.25;5076180;28;19977;-74
2023/02/02 04:44:51;;;;;;;;;;;;;;;3.38;100.00;97187.03;5076009;28;19966;-74
2023/02/02 04:47:16;;;;;;;;;;;;;;;3.40;100.00;97195.47;5075987;28;19953;-74
2023/02/02 04:49:42;;;;;;;;;;;;;;;3.40;100.00;97195.47;5075892;28;19995;-74
2023/02/02 04:52:09;;;;;;;;;;;;;;;3.41;100.00;97202.28;5075831;28;19960;-74
2023/02/02 04:54:35;;;;;;;;;;;;;;;3.44;100.00;97202.81;5075837;28;20315;-74
2023/02/02 04:57:01;;;;;;;;;;;;;;;3.45;100.00;97201.81;5074393;28;19973;-75
2023/02/02 04:59:27;;;;;;;;;;;;;;;3.45;100.00;97196.63;5075816;28;19949;-74
2023/02/02 05:01:53;;;;;;;;;;;;;;;3.47;100.00;97200.88;5075746;28;20334;-74
2023/02/02 05:04:19;;;;;;;;;;;;;;;3.47;100.00;97195.69;5075807;28;19955;-74
2023/02/02 05:06:45;;;;;;;;;;;;;;;3.46;100.00;97205.22;5075550;28;19945;-74
2023/02/02 05:09:11;;;;;;;;;;;;;;;3.48;100.00;97199.88;5075971;28;19954;-74
2023/02/02 05:11:39;;;;;;;;;;;;;;;3.48;100.00;97205.88;5074377;28;19965;-76
2023/02/02 05:14:05;;;;;;;;;;;;;;;3.49;100.00;97202.31;5075325;28;19971;-74
2023/02/02 05:16:31;;;;;;;;;;;;;;;3.50;100.00;97192.75;5074607;28;19986;-73
2023/02/02 05:18:58;;;;;;;;;;;;;;;3.50;100.00;97208.31;5076262;28;19951;-73
2023/02/02 05:21:24;;;;;;;;;;;;;;;3.50;100.00;97213.50;5075406;28;19956;-74
2023/02/02 05:23:50;;;;;;;;;;;;;;;3.50;100.00;97213.50;5075521;28;20356;-73
2023/02/02 05:26:18;;;;;;;;;;;;;;;3.50;100.00;97216.09;5075249;28;19952;-74
2023/02/02 05:28:44;;;;;;;;;;;;;;;3.49;100.00;97217.88;5075395;28;19958;-73
2023/02/02 05:31:10;;;;;;;;;;;;;;;3.49;100.00;97217.09;5074972;28;19952;-74
2023/02/02 05:33:35;;;;;;;;;;;;;;;3.48;100.00;97215.44;5075387;28;19963;-74
2023/02/02 05:36:01;;;;;;;;;;;;;;;3.49;100.00;97222.25;5074449;28;19955;-74
2023/02/02 05:38:27;;;;;;;;;;;;;;;3.46;100.00;97220.78;5074552;28;19993;-73
2023/02/02 05:40:53;;;;;;;;;;;;;;;3.47;100.00;97219.00;5074513;28;19953;-73
2023/02/02 05:43:19;;;;;;;;;;;;;;;3.45;100.00;97227.75;5074522;28;20037;-74
2023/02/02 05:45:45;;;;;;;;;;;;;;;3.45;100.00;97222.56;5074470;28;19976;-73
2023/02/02 05:48:15;;;;;;;;;;;;;;;3.47;100.00;97232.78;5074767;28;20376;-74
2023/02/02 05:50:43;;;;;;;;;;;;;;;3.46;100.00;97233.75;5074002;28;19944;-73
2023/02/02 05:53:11;;;;;;;;;;;;;;;3.47;100.00;97248.34;5074539;28;21017;-75
2023/02/02 05:55:37;;;;;;;;;;;;;;;3.47;100.00;97247.53;5074585;28;20419;-74
2023/02/02 05:58:03;;;;;;;;;;;;;;;3.47;100.00;97244.94;5074701;28;19948;-74
2023/02/02 06:00:29;;;;;;;;;;;;;;;3.47;100.00;97243.16;5074420;28;20378;-74
2023/02/02 06:02:55;;;;;;;;;;;;;;;3.48;100.00;97239.59;5074651;28;20010;-74
2023/02/02 06:05:21;;;;;;;;;;;;;;;3.47;100.00;97237.16;5074630;28;20412;-74
2023/02/02 06:07:47;;;;;;;;;;;;;;;3.47;100.00;97247.53;5073323;28;19956;-75
2023/02/02 06:10:12;;;;;;;;;;;;;;;3.45;100.00;97245.09;5073937;28;19955;-74
2023/02/02 06:12:38;;;;;;;;;;;;;;;3.43;100.00;97253.00;5073386;28;19960;-74
2023/02/02 06:15:05;;;;;;;;;;;;;;;3.45;100.00;97252.88;5074411;28;19977;-75
2023/02/02 06:17:30;;;;;;;;;;;;;;;3.44;100.00;97259.84;5073414;28;19999;-74
2023/02/02 06:19:56;;;;;;;;;;;;;;;3.44;100.00;97252.06;5074266;28;19949;-74
2023/02/02 06:22:22;;;;;;;;;;;;;;;3.45;100.00;97261.44;5074134;28;19956;-75
2023/02/02 06:24:48;;;;;;;;;;;;;;;3.46;100.00;97262.25;5073852;28;19977;-74
2023/02/02 06:27:14;;;;;;;;;;;;;;;3.46;100.00;97264.84;5074067;28;20015;-74
2023/02/02 06:29:40;;;;;;;;;;;;;;;3.47;100.00;97253.53;5074069;28;20380;-74
2023/02/02 06:32:06;;;;;;;;;;;;;;;3.47;100.00;97269.09;5074545;28;20041;-74
2023/02/02 06:34:32;;;;;;;;;;;;;;;3.47;100.00;97268.28;5073880;28;20317;-74
2023/02/02 06:36:57;;;;;;;;;;;;;;;3.47;100.00;97273.47;5073894;28;19958;-74
2023/02/02 06:39:23;;;;;;;;;;;;;;;3.46;100.00;97267.44;5073714;28;20289;-74
2023/02/02 06:41:50;;;;;;;;;;;;;;;3.45;100.00;97276.22;5073813;28;19953;-75
2023/02/02 06:44:18;;;;;;;;;;;;;;;3.45;100.00;97282.19;5073946;28;19965;-74
2023/02/02 06:46:44;;;;;;;;;;;;;;;3.43;100.00;97275.53;5073913;28;19948;-74
2023/02/02 06:49:10;;;;;;;;;;;;;;;3.39;100.00;97275.03;5073771;28;19952;-74
2023/02/02 06:51:36;;;;;;;;;;;;;;;3.42;100.00;97276.50;5073786;28;19958;-75
2023/02/02 06:54:02;;;;;;;;;;;;;;;3.41;100.00;97278.28;5073401;28;19968;-74
2023/02/02 06:56:28;;;;;;;;;;;;;;;3.40;100.00;97276.66;5072558;28;19949;-74
2023/02/02 06:58:54;;;;;;;;;;;;;;;3.40;100.00;97275.84;5073495;28;20047;-75
2023/02/02 07:01:20;;;;;;;;;;;;;;;3.39;100.00;97275.03;5072586;28;20034;-74
2023/02/02 07:03:49;;;;;;;;;;;;;;;3.37;100.00;97269.19;5073537;28;19990;-74
2023/02/02 07:06:17;;;;;;;;;;;;;;;3.39;100.00;97272.44;5072659;28;19949;-75
2023/02/02 07:08:43;;;;;;;;;;;;;;;3.40;100.00;97275.84;5073131;28;19947;-74
2023/02/02 07:11:10;;;;;;;;;;;;;;;3.40;100.00;97275.84;5073726;28;20438;-74
2023/02/02 07:13:35;;;;;;;;;;;;;;;3.40;100.00;97275.84;5073543;28;19992;-74
2023/02/02 07:16:03;;;;;;;;;;;;;;;3.40;100.00;97274.06;5072957;28;19945;-75
2023/02/02 07:18:29;;;;;;;;;;;;;;;3.42;100.00;97271.31;5073563;28;19945;-74
2023/02/02 07:20:57;;;;;;;;;;;;;;;3.45;100.00;97260.66;5073341;28;19956;-74
2023/02/02 07:23:23;;;;;;;;;;;;;;;3.47;100.00;97265.69;5071487;28;20427;-74
2023/02/02 07:25:49;;;;;;;;;;;;;;;3.47;100.00;97263.91;5055370;28;19997;-74
2023/02/02 07:28:14;;;;;;;;;;;;;;;3.48;100.00;97264.72;5073587;28;19950;-73
2023/02/02 07:30:40;;;;;;;;;;;;;;;3.48;100.00;97270.69;5072164;28;20003;-74
2023/02/02 07:33:06;;;;;;;;;;;;;;;3.49;100.00;97267.16;5073251;28;20004;-74
2023/02/02 07:35:32;;;;;;;;;;;;;;;3.49;100.00;97267.16;5074272;28;19954;-74
2023/02/02 07:37:58;;;;;;;;;;;;;;;3.52;100.00;97274.63;5077220;28;19949;-74
2023/02/02 07:40:24;;;;;;;;;;;;;;;3.57;100.00;97271.56;5077556;28;19950;-74
2023/02/02 07:42:50;;;;;;;;;;;;;;;3.57;100.00;97272.41;5076831;28;20403;-74
2023/02/02 07:45:16;;;;;;;;;;;;;;;3.60;100.00;97271.28;5077297;28;20418;-74
2023/02/02 07:47:41;;;;;;;;;;;;;;;3.62;100.00;97279.72;5077060;28;19957;-74
2023/02/02 07:50:08;;;;;;;;;;;;;;;3.64;100.00;97283.78;5077061;28;19954;-74
2023/02/02 07:52:34;;;;;;;;;;;;;;;3.69;100.00;97287.69;5076737;28;19965;-74
2023/02/02 07:54:59;;;;;;;;;;;;;;;3.70;100.00;97273.78;5077182;28;19971;-74
2023/02/02 07:57:25;;;;;;;;;;;;;;;3.72;100.00;97274.44;5075764;28;19949;-74
2023/02/02 07:59:53;;;;;;;;;;;;;;;3.74;100.00;97280.25;5077005;28;20359;-74
2023/02/02 08:02:19;;;;;;;;;;;;;;;3.76;100.00;97270.53;5076885;28;19957;-74
2023/02/02 08:04:46;;;;;;;;;;;;;;;3.77;100.00;97282.56;5076513;28;19954;-74
2023/02/02 08:07:12;;;;;;;;;;;;;;;3.79;100.00;97289.22;5077058;28;19950;-74
2023/02/02 08:09:38;;;;;;;;;;;;;;;3.81;100.00;97289.06;5076743;28;20405;-74
2023/02/02 08:12:03;;;;;;;;;;;;;;;3.83;100.00;97294.91;5076114;28;19997;-74
2023/02/02 08:14:29;;;;;;;;;;;;;;;3.84;100.00;97288.75;5076375;28;19967;-74
2023/02/02 08:16:55;;;;;;;;;;;;;;;3.85;100.00;97298.16;5076584;28;19972;-74
2023/02/02 08:19:21;;;;;;;;;;;;;;;3.86;100.00;97302.38;5076604;28;20065;-74
2023/02/02 08:21:47;;;;;;;;;;;;;;;3.87;100.00;97291.03;5077021;28;19979;-74
2023/02/02 08:24:13;;;;;;;;;;;;;;;3.89;100.00;97294.28;5075315;28;20001;-74
2023/02/02 08:26:39;;;;;;;;;;;;;;;3.92;100.00;97293.16;5076385;28;19947;-74
2023/02/02 08:29:06;;;;;;;;;;;;;;;3.92;100.00;97286.19;5076250;28;20035;-74
2023/02/02 08:31:36;;;;;;;;;;;;;;;3.96;100.00;97294.47;5076380;28;19948;-74
2023/02/02 08:34:03;;;;;;;;;;;;;;;3.99;100.00;97291.56;5076044;28;19964;-74
2023/02/02 08:36:29;;;;;;;;;;;;;;;4.02;100.00;97292.06;5074988;28;19945;-74
2023/02/02 08:38:58;;;;;;;;;;;;;;;4.06;100.00;97287.41;5075773;28;19956;-74
2023/02/02 08:41:24;;;;;;;;;;;;;;;4.13;100.00;97293.56;5076066;28;20289;-74
2023/02/02 08:43:50;;;;;;;;;;;;;;;4.18;100.00;97293.09;5075830;28;19984;-74
2023/02/02 08:46:17;;;;;;;;;;;;;;;4.21;100.00;97303.19;5075796;28;19957;-74
2023/02/02 08:48:43;;;;;;;;;;;;;;;4.22;100.00;97310.00;5075931;28;19950;-74
2023/02/02 08:51:10;;;;;;;;;;;;;;;4.32;100.00;97315.88;5075839;28;20417;-73
2023/02/02 08:53:36;;;;;;;;;;;;;;;4.54;100.00;97327.50;5075907;28;19961;-74
2023/02/02 08:56:06;;;;;;;;;;;;;;;4.57;100.00;97314.19;5075940;28;19990;-76
2023/02/02 08:58:33;;;;;;;;;;;;;;;4.54;100.00;97334.47;5075032;28;20429;-74
2023/02/02 09:01:02;;;;;;;;;;;;;;;4.47;100.00;97329.06;5075741;28;19950;-74
2023/02/02 09:03:28;;;;;;;;;;;;;;;4.41;100.00;97333.13;5076452;28;20304;-74
2023/02/02 09:05:54;;;;;;;;;;;;;;;4.37;100.00;97336.22;5075509;28;20041;-75
2023/02/02 09:08:20;;;;;;;;;;;;;;;4.37;100.00;97349.19;5075775;28;19958;-74
2023/02/02 09:10:46;;;;;;;;;;;;;;;4.36;100.00;97357.94;5075589;28;19955;-74
2023/02/02 09:13:12;;;;;;;;;;;;;;;4.36;100.00;97370.94;5075572;28;19955;-74
2023/02/02 09:15:38;;;;;;;;;;;;;;;4.33;100.00;97368.66;5108023;28;19948;-74
2023/02/02 09:18:04;;;;;;;;;;;;;;;4.29;100.00;97373.34;5075435;28;19957;-76
2023/02/02 09:20:30;;;;;;;;;;;;;;;4.26;100.00;97374.47;5075277;28;20041;-74
2023/02/02 09:22:56;;;;;;;;;;;;;;;4.23;100.00;97372.16;5075292;28;20325;-74
2023/02/02 09:25:23;;;;;;;;;;;;;;;4.21;100.00;97366.31;5075677;28;19957;-74
2023/02/02 09:27:50;;;;;;;;;;;;;;;4.23;100.00;97369.56;5074552;28;19957;-74
2023/02/02 09:30:16;;;;;;;;;;;;;;;4.21;100.00;97376.69;5075365;28;19952;-74
2023/02/02 09:32:42;;;;;;;;;;;;;;;4.23;100.00;97377.34;5075346;28;19951;-74
2023/02/02 09:35:08;;;;;;;;;;;;;;;4.23;100.00;97361.78;5075065;28;19991;-74
2023/02/02 09:37:34;;;;;;;;;;;;;;;4.25;100.00;97370.22;5075435;28;19955;-73
2023/02/02 09:40:00;;;;;;;;;;;;;;;4.24;100.00;97372.97;5073437;28;19949;-73
2023/02/02 09:42:45;;;;;;;;;;;;;;;4.24;100.00;97380.75;5074934;28;20414;-74
2023/02/02 09:45:17;;;;;;;;;;;;;;;4.21;100.00;97375.88;5074782;28;19954;-73
2023/02/02 09:47:51;;;;;;;;;;;;;;;4.21;100.00;97388.88;5075027;28;19956;-73
2023/02/02 09:50:24;;;;;;;;;;;;;;;4.20;100.00;97390.66;5074841;28;19948;-73
2023/02/02 09:52:59;;;;;;;;;;;;;;;4.19;100.00;97393.41;5073579;28;20428;-74
2023/02/02 09:55:33;;;;;;;;;;;;;;;4.20;100.00;97392.41;5073427;28;19965;-73
2023/02/02 09:58:02;;;;;;;;;;;;;;;4.22;100.00;97390.47;5074231;28;20351;-73
2023/02/02 10:00:41;;;;;;;;;;;;;;;4.25;100.00;97395.38;5074641;28;19946;-73
2023/02/02 10:03:14;;;;;;;;;;;;;;;4.25;100.00;97392.78;5074671;28;19962;-73
2023/02/02 10:05:49;;;;;;;;;;;;;;;4.25;100.00;97388.41;5074786;28;19955;-74
2023/02/02 10:08:32;;;;;;;;;;;;;;;4.25;100.00;97387.59;5074459;28;20287;-74
2023/02/02 10:11:00;;;;;;;;;;;;;;;4.31;100.00;97396.56;5065503;28;20029;-73
2023/02/02 10:13:31;;;;;;;;;;;;;;;4.30;100.00;97398.31;5074542;28;19945;-74
2023/02/02 10:16:06;;;;;;;;;;;;;;;4.30;100.00;97405.31;5074365;28;19951;-74
2023/02/02 10:18:38;;;;;;;;;;;;;;;4.54;100.00;97407.22;5074157;28;20006;-74
2023/02/02 10:21:26;;;;;;;;;;;;;;;4.71;100.00;97393.31;5074514;28;20308;-74
2023/02/02 10:23:53;;;;;;;;;;;;;;;4.67;100.00;97390.22;5061507;28;19951;-73
2023/02/02 10:26:21;;;;;;;;;;;;;;;4.61;100.00;97390.84;5074121;28;20326;-73
2023/02/02 10:29:01;;;;;;;;;;;;;;;4.57;100.00;97386.91;5073923;28;19953;-74
2023/02/02 10:31:46;;;;;;;;;;;;;;;4.49;100.00;97389.47;5074206;28;20289;-73
2023/02/02 10:34:14;;;;;;;;;;;;;;;4.43;100.00;97382.31;5074350;28;19963;-73
2023/02/02 10:36:45;;;;;;;;;;;;;;;4.41;100.00;97381.66;5073893;28;19952;-73
2023/02/02 10:39:23;;;;;;;;;;;;;;;4.39;100.00;97388.78;5073642;28;19952;-74
2023/02/02 10:41:55;;;;;;;;;;;;;;;4.34;100.00;97391.03;5073715;28;19954;-74
2023/02/02 10:44:27;;;;;;;;;;;;;;;4.30;100.00;97387.13;5073925;28;20337;-73
2023/02/02 10:46:54;;;;;;;;;;;;;;;4.32;100.00;97393.78;5073827;28;20329;-73
2023/02/02 10:49:32;;;;;;;;;;;;;;;4.35;100.00;97397.88;5073896;28;19951;-74
2023/02/02 10:52:10;;;;;;;;;;;;;;;4.35;100.00;97403.88;5073680;28;19943;-74
2023/02/02 10:54:41;;;;;;;;;;;;;;;4.34;100.00;97406.63;5073607;28;19963;-74
2023/02/02 10:57:09;;;;;;;;;;;;;;;4.33;100.00;97407.59;5074122;28;19962;-73
2023/02/02 10:59:43;;;;;;;;;;;;;;;4.33;100.00;97418.00;5073635;28;19948;-73
2023/02/02 11:02:10;;;;;;;;;;;;;;;4.30;100.00;97411.31;5073817;28;20833;-74
2023/02/02 11:07:20;;;;;;;;;;;;;;;4.29;100.00;97401.09;5073516;28;19960;-74
2023/02/02 11:09:46;;;;;;;;;;;;;;;4.27;100.00;97403.84;5074051;28;19993;-73
2023/02/02 11:12:19;;;;;;;;;;;;;;;4.29;100.00;97409.69;5073731;28;19962;-74
2023/02/02 11:14:55;;;;;;;;;;;;;;;4.29;100.00;97398.50;5074022;28;19971;-74
2023/02/02 11:17:22;;;;;;;;;;;;;;;4.31;100.00;97410.34;5062109;28;19954;-74
2023/02/02 11:19:48;;;;;;;;;;;;;;;4.33;100.00;97415.41;5073488;28;19957;-73
2023/02/02 11:22:27;;;;;;;;;;;;;;;4.34;100.00;97411.81;5073587;28;19950;-73
2023/02/02 11:24:54;;;;;;;;;;;;;;;4.36;100.00;97404.69;5072562;28;19948;-73
2023/02/02 11:27:21;;;;;;;;;;;;;;;4.36;100.00;97394.28;5073777;28;19955;-73
2023/02/02 11:29:52;;;;;;;;;;;;;;;4.36;100.00;97395.09;5073263;28;19947;-73
2023/02/02 11:32:23;;;;;;;;;;;;;;;4.38;100.00;97406.16;5072516;28;20400;-73
2023/02/02 11:35:15;;;;;;;;;;;;;;;4.38;100.00;97406.16;5073596;28;20306;-73
2023/02/02 11:38:17;;;;;;;;;;;;;;;4.41;100.00;97397.22;5064430;28;19948;-73
2023/02/02 11:40:44;;;;;;;;;;;;;;;4.46;100.00;97400.19;5011626;28;19955;-73
2023/02/02 11:43:15;;;;;;;;;;;;;;;4.48;100.00;97398.25;5060865;28;19987;-73
2023/02/02 11:45:43;;;;;;;;;;;;;;;4.50;100.00;97401.50;5073024;28;19954;-73
2023/02/02 11:48:14;;;;;;;;;;;;;;;4.52;100.00;97398.78;5073046;28;19974;-73
2023/02/02 11:50:44;;;;;;;;;;;;;;;4.54;100.00;97399.44;5073620;28;19957;-73
2023/02/02 11:53:30;;;;;;;;;;;;;;;4.55;100.00;97403.63;5071966;28;20299;-73
2023/02/02 11:55:57;;;;;;;;;;;;;;;4.58;100.00;97405.94;5073001;28;19965;-73
2023/02/02 11:58:26;;;;;;;;;;;;;;;4.59;100.00;97408.34;5073044;28;19955;-73
2023/02/02 12:01:02;;;;;;;;;;;;;;;4.61;100.00;97398.63;5073149;28;19967;-73
2023/02/02 12:03:30;;;;;;;;;;;;;;;4.63;100.00;97396.69;5073167;28;19955;-73
2023/02/02 12:05:56;;;;;;;;;;;;;;;4.64;100.00;97402.69;5072860;28;20319;-74
2023/02/02 12:08:23;;;;;;;;;;;;;;;4.65;100.00;97402.53;5072843;28;20023;-74
2023/02/02 12:10:59;;;;;;;;;;;;;;;4.68;100.00;97391.84;5073117;28;19954;-74
2023/02/02 12:13:36;;;;;;;;;;;;;;;4.70;100.00;97394.28;5073275;28;20430;-75
2023/02/02 12:16:29;;;;;;;;;;;;;;;4.74;100.00;97392.19;5062976;28;19962;-74
2023/02/02 12:18:55;;;;;;;;;;;;;;;4.75;100.00;97393.81;5069159;28;20413;-74
2023/02/02 12:21:30;;;;;;;;;;;;;;;4.74;100.00;97387.78;5073281;28;19953;-74
2023/02/02 12:24:08;;;;;;;;;;;;;;;4.74;100.00;97389.59;5076583;28;19951;-74
2023/02/02 12:26:35;;;;;;;;;;;;;;;4.73;100.00;97390.56;5075725;28;19973;-74
2023/02/02 12:29:02;;;;;;;;;;;;;;;4.74;100.00;97387.78;5075827;28;19950;-75
2023/02/02 12:31:40;;;;;;;;;;;;;;;4.72;100.00;97384.53;5076714;28;20335;-74
2023/02/02 12:34:11;;;;;;;;;;;;;;;4.71;100.00;97380.31;5076407;28;19947;-74
2023/02/02 12:36:37;;;;;;;;;;;;;;;4.72;100.00;97384.53;5074982;28;19952;-74
2023/02/02 12:39:09;;;;;;;;;;;;;;;4.74;100.00;97382.59;5076157;28;19941;-74
2023/02/02 12:41:45;;;;;;;;;;;;;;;4.79;100.00;97393.34;5075843;28;19962;-74
2023/02/02 12:44:34;;;;;;;;;;;;;;;4.83;100.00;97389.47;5074940;28;20402;-74
2023/02/02 12:47:09;;;;;;;;;;;;;;;4.84;100.00;97385.88;5047008;28;19983;-74
2023/02/02 12:49:44;;;;;;;;;;;;;;;4.85;100.00;97374.53;5076102;28;19967;-74
2023/02/02 12:52:28;;;;;;;;;;;;;;;4.84;100.00;97378.06;5076194;28;19951;-74
2023/02/02 12:54:56;;;;;;;;;;;;;;;4.85;100.00;97381.47;5075774;28;19960;-74
2023/02/02 12:57:40;;;;;;;;;;;;;;;4.85;100.00;97384.09;5076124;28;19952;-74
2023/02/02 13:00:33;;;;;;;;;;;;;;;4.86;100.00;97381.34;5061126;28;20311;-74
2023/02/02 13:03:25;;;;;;;;;;;;;;;4.83;100.00;97386.84;5075934;28;19942;-74
2023/02/02 13:05:52;;;;;;;;;;;;;;;4.84;100.00;97378.06;5072663;28;19961;-74
2023/02/02 13:08:20;;;;;;;;;;;;;;;4.85;100.00;97387.50;5075950;28;20432;-74